sensor_id;sensor_type;location;lat;lon;timestamp;pressure;altitude;pressure_sealevel;temperature;humidity
39773;BME280;25451;51.960;6.250;2023-04-10T00:00:39;102012.38;;;10.07;59.18
39773;BME280;25451;51.960;6.250;2023-04-10T00:03:06;102017.25;;;10.05;59.21
39773;BME280;25451;51.960;6.250;2023-04-10T00:05:32;102015.13;;;10.07;59.32
39773;BME280;25451;51.960;6.250;2023-04-10T00:07:57;102015.34;;;10.06;59.43
39773;BME280;25451;51.960;6.250;2023-04-10T00:10:22;102019.16;;;10.04;59.47
39773;BME280;25451;51.960;6.250;2023-04-10T00:12:50;102011.97;;;10.03;59.40
39773;BME280;25451;51.960;6.250;2023-04-10T00:15:18;102015.53;;;10.04;59.30
39773;BME280;25451;51.960;6.250;2023-04-10T00:17:43;102021.28;;;10.02;59.47
39773;BME280;25451;51.960;6.250;2023-04-10T00:20:08;102019.59;;;10.01;59.40
39773;BME280;25451;51.960;6.250;2023-04-10T00:22:34;102016.19;;;9.99;59.58
39773;BME280;25451;51.960;6.250;2023-04-10T00:24:59;102022.75;;;9.98;59.43
39773;BME280;25451;51.960;6.250;2023-04-10T00:27:25;102020.22;;;9.97;59.80
39773;BME280;25451;51.960;6.250;2023-04-10T00:29:50;102013.84;;;9.96;59.61
39773;BME280;25451;51.960;6.250;2023-04-10T00:32:15;102002.41;;;9.93;59.82
39773;BME280;25451;51.960;6.250;2023-04-10T00:34:41;101995.81;;;9.94;59.85
39773;BME280;25451;51.960;6.250;2023-04-10T00:37:06;101988.19;;;9.89;59.63
39773;BME280;25451;51.960;6.250;2023-04-10T00:39:32;101990.50;;;9.92;59.76
39773;BME280;25451;51.960;6.250;2023-04-10T00:41:57;101986.25;;;9.90;59.87
39773;BME280;25451;51.960;6.250;2023-04-10T00:44:22;101982.69;;;9.89;59.85
39773;BME280;25451;51.960;6.250;2023-04-10T00:46:48;101970.34;;;9.85;59.96
39773;BME280;25451;51.960;6.250;2023-04-10T00:49:13;101979.28;;;9.87;59.79
39773;BME280;25451;51.960;6.250;2023-04-10T00:51:39;101966.53;;;9.86;59.98
39773;BME280;25451;51.960;6.250;2023-04-10T00:54:06;101964.81;;;9.85;59.93
39773;BME280;25451;51.960;6.250;2023-04-10T00:56:34;101958.91;;;9.82;59.92
39773;BME280;25451;51.960;6.250;2023-04-10T00:58:59;101958.91;;;9.82;59.86
39773;BME280;25451;51.960;6.250;2023-04-10T01:01:26;101951.25;;;9.77;59.95
39773;BME280;25451;51.960;6.250;2023-04-10T01:03:52;101953.38;;;9.75;60.28
39773;BME280;25451;51.960;6.250;2023-04-10T01:06:52;101943.84;;;9.78;59.91
39773;BME280;25451;51.960;6.250;2023-04-10T01:17:41;101931.34;;;9.69;60.34
39773;BME280;25451;51.960;6.250;2023-04-10T01:20:13;101933.03;;;9.70;60.50
39773;BME280;25451;51.960;6.250;2023-04-10T01:22:44;101930.50;;;9.68;60.13
39773;BME280;25451;51.960;6.250;2023-04-10T01:28:20;101930.06;;;9.65;60.42
39773;BME280;25451;51.960;6.250;2023-04-10T01:30:56;101927.50;;;9.63;60.30
39773;BME280;25451;51.960;6.250;2023-04-10T01:33:38;101929.63;;;9.61;60.46
39773;BME280;25451;51.960;6.250;2023-04-10T01:36:06;101926.03;;;9.61;60.46
39773;BME280;25451;51.960;6.250;2023-04-10T01:38:32;101931.75;;;9.59;60.04
39773;BME280;25451;51.960;6.250;2023-04-10T01:41:00;101927.31;;;9.58;60.58
39773;BME280;25451;51.960;6.250;2023-04-10T01:43:28;101928.34;;;9.57;60.64
39773;BME280;25451;51.960;6.250;2023-04-10T01:45:56;101931.31;;;9.56;60.83
39773;BME280;25451;51.960;6.250;2023-04-10T01:48:22;101937.91;;;9.55;60.66
39773;BME280;25451;51.960;6.250;2023-04-10T01:50:49;101928.16;;;9.52;60.56
39773;BME280;25451;51.960;6.250;2023-04-10T01:53:15;101930.91;;;9.52;60.56
39773;BME280;25451;51.960;6.250;2023-04-10T01:55:41;101923.50;;;9.46;60.77
39773;BME280;25451;51.960;6.250;2023-04-10T01:58:07;101922.22;;;9.49;60.58
39773;BME280;25451;51.960;6.250;2023-04-10T02:00:39;101931.75;;;9.46;60.80
39773;BME280;25451;51.960;6.250;2023-04-10T02:03:08;101920.72;;;9.46;60.87
39773;BME280;25451;51.960;6.250;2023-04-10T02:05:51;101923.72;;;9.45;60.81
39773;BME280;25451;51.960;6.250;2023-04-10T02:08:35;101918.38;;;9.43;60.92
39773;BME280;25451;51.960;6.250;2023-04-10T02:11:32;101919.47;;;9.42;60.90
39773;BME280;25451;51.960;6.250;2023-04-10T02:14:03;101916.25;;;9.39;60.76
39773;BME280;25451;51.960;6.250;2023-04-10T02:16:30;101912.03;;;9.36;61.12
39773;BME280;25451;51.960;6.250;2023-04-10T02:18:57;101910.09;;;9.37;60.78
39773;BME280;25451;51.960;6.250;2023-04-10T02:21:24;101906.53;;;9.36;60.87
39773;BME280;25451;51.960;6.250;2023-04-10T02:23:51;101911.41;;;9.34;60.88
39773;BME280;25451;51.960;6.250;2023-04-10T02:26:16;101915.19;;;9.33;60.87
39773;BME280;25451;51.960;6.250;2023-04-10T02:28:41;101906.28;;;9.31;61.02
39773;BME280;25451;51.960;6.250;2023-04-10T02:31:06;101912.66;;;9.32;61.01
39773;BME280;25451;51.960;6.250;2023-04-10T02:33:32;101902.91;;;9.29;61.18
39773;BME280;25451;51.960;6.250;2023-04-10T02:35:59;101906.72;;;9.28;61.11
39773;BME280;25451;51.960;6.250;2023-04-10T02:38:24;101901.41;;;9.27;60.89
39773;BME280;25451;51.960;6.250;2023-04-10T02:40:50;101895.06;;;9.26;61.41
39773;BME280;25451;51.960;6.250;2023-04-10T02:43:15;101900.75;;;9.25;61.00
39773;BME280;25451;51.960;6.250;2023-04-10T02:45:40;101895.47;;;9.23;61.50
39773;BME280;25451;51.960;6.250;2023-04-10T02:48:06;101886.34;;;9.23;61.11
39773;BME280;25451;51.960;6.250;2023-04-10T02:50:32;101889.31;;;9.21;61.43
39773;BME280;25451;51.960;6.250;2023-04-10T02:52:57;101878.94;;;9.16;61.09
39773;BME280;25451;51.960;6.250;2023-04-10T02:55:22;101889.75;;;9.18;61.15
39773;BME280;25451;51.960;6.250;2023-04-10T02:57:48;101884.44;;;9.16;61.36
39773;BME280;25451;51.960;6.250;2023-04-10T03:00:13;101889.13;;;9.16;61.03
39773;BME280;25451;51.960;6.250;2023-04-10T03:02:39;101879.59;;;9.12;61.13
39773;BME280;25451;51.960;6.250;2023-04-10T03:05:05;101883.16;;;9.12;61.34
39773;BME280;25451;51.960;6.250;2023-04-10T03:07:32;101883.16;;;9.12;61.27
39773;BME280;25451;51.960;6.250;2023-04-10T03:09:57;101877.88;;;9.11;61.34
39773;BME280;25451;51.960;6.250;2023-04-10T03:12:23;101869.81;;;9.09;61.37
39773;BME280;25451;51.960;6.250;2023-04-10T03:14:48;101870.22;;;9.06;61.72
39773;BME280;25451;51.960;6.250;2023-04-10T03:17:13;101874.06;;;9.05;61.48
39773;BME280;25451;51.960;6.250;2023-04-10T03:19:39;101869.81;;;9.03;61.83
39773;BME280;25451;51.960;6.250;2023-04-10T03:22:04;101869.81;;;9.03;61.84
39773;BME280;25451;51.960;6.250;2023-04-10T03:24:29;101872.78;;;9.01;61.43
39773;BME280;25451;51.960;6.250;2023-04-10T03:26:55;101868.31;;;9.00;61.83
39773;BME280;25451;51.960;6.250;2023-04-10T03:29:21;101856.25;;;8.95;61.63
39773;BME280;25451;51.960;6.250;2023-04-10T03:31:46;101865.53;;;8.94;61.82
39773;BME280;25451;51.960;6.250;2023-04-10T03:34:11;101870.22;;;8.93;61.89
39773;BME280;25451;51.960;6.250;2023-04-10T03:36:37;101865.75;;;8.92;61.64
39773;BME280;25451;51.960;6.250;2023-04-10T03:39:02;101863.84;;;8.86;62.18
39773;BME280;25451;51.960;6.250;2023-04-10T03:41:27;101871.47;;;8.91;61.68
39773;BME280;25451;51.960;6.250;2023-04-10T03:43:52;101873.59;;;8.89;61.96
39773;BME280;25451;51.960;6.250;2023-04-10T03:46:18;101875.72;;;8.87;61.94
39773;BME280;25451;51.960;6.250;2023-04-10T03:48:43;101857.06;;;8.82;61.65
39773;BME280;25451;51.960;6.250;2023-04-10T03:51:08;101863.19;;;8.84;61.62
39773;BME280;25451;51.960;6.250;2023-04-10T03:53:34;101866.16;;;8.83;62.15
39773;BME280;25451;51.960;6.250;2023-04-10T03:56:01;101861.69;;;8.82;61.65
39773;BME280;25451;51.960;6.250;2023-04-10T03:58:27;101855.78;;;8.78;62.02
39773;BME280;25451;51.960;6.250;2023-04-10T04:00:52;101859.38;;;8.79;62.26
39773;BME280;25451;51.960;6.250;2023-04-10T04:03:17;101856.00;;;8.77;61.90
39773;BME280;25451;51.960;6.250;2023-04-10T04:05:43;101849.63;;;8.76;61.70
39773;BME280;25451;51.960;6.250;2023-04-10T04:08:08;101852.59;;;8.75;61.91
39773;BME280;25451;51.960;6.250;2023-04-10T04:10:33;101830.97;;;8.72;61.68
39773;BME280;25451;51.960;6.250;2023-04-10T04:12:58;101847.50;;;8.72;62.05
39773;BME280;25451;51.960;6.250;2023-04-10T04:15:24;101831.41;;;8.69;62.02
39773;BME280;25451;51.960;6.250;2023-04-10T04:17:49;101836.06;;;8.68;62.25
39773;BME280;25451;51.960;6.250;2023-04-10T04:20:15;101832.66;;;8.66;61.99
39773;BME280;25451;51.960;6.250;2023-04-10T04:22:40;101839.03;;;8.67;62.36
39773;BME280;25451;51.960;6.250;2023-04-10T04:25:06;101830.34;;;8.63;62.25
39773;BME280;25451;51.960;6.250;2023-04-10T04:27:34;101835.84;;;8.63;62.21
39773;BME280;25451;51.960;6.250;2023-04-10T04:30:00;101836.88;;;8.62;62.28
39773;BME280;25451;51.960;6.250;2023-04-10T04:32:26;101820.59;;;8.61;61.87
39773;BME280;25451;51.960;6.250;2023-04-10T04:34:52;101825.84;;;8.56;62.45
39773;BME280;25451;51.960;6.250;2023-04-10T04:37:17;101838.34;;;8.58;62.23
39773;BME280;25451;51.960;6.250;2023-04-10T04:39:42;101825.63;;;8.57;62.24
39773;BME280;25451;51.960;6.250;2023-04-10T04:42:07;101821.81;;;8.52;62.29
39773;BME280;25451;51.960;6.250;2023-04-10T04:44:33;101825.22;;;8.54;62.31
39773;BME280;25451;51.960;6.250;2023-04-10T04:46:58;101820.78;;;8.53;62.56
39773;BME280;25451;51.960;6.250;2023-04-10T04:49:23;101818.44;;;8.50;62.50
39773;BME280;25451;51.960;6.250;2023-04-10T04:51:49;101820.16;;;8.51;62.34
39773;BME280;25451;51.960;6.250;2023-04-10T04:54:14;101818.66;;;8.48;62.32
39773;BME280;25451;51.960;6.250;2023-04-10T04:56:39;101815.03;;;8.48;62.37
39773;BME280;25451;51.960;6.250;2023-04-10T04:59:05;101813.34;;;8.47;62.63
39773;BME280;25451;51.960;6.250;2023-04-10T05:01:30;101812.50;;;8.46;62.75
39773;BME280;25451;51.960;6.250;2023-04-10T05:03:55;101808.25;;;8.44;62.29
39773;BME280;25451;51.960;6.250;2023-04-10T05:06:21;101814.41;;;8.46;62.14
39773;BME280;25451;51.960;6.250;2023-04-10T05:08:46;101811.84;;;8.44;62.50
39773;BME280;25451;51.960;6.250;2023-04-10T05:11:12;101806.56;;;8.43;62.24
39773;BME280;25451;51.960;6.250;2023-04-10T05:13:37;101805.28;;;8.45;62.38
39773;BME280;25451;51.960;6.250;2023-04-10T05:16:02;101811.66;;;8.46;62.16
39773;BME280;25451;51.960;6.250;2023-04-10T05:18:28;101804.84;;;8.42;62.52
39773;BME280;25451;51.960;6.250;2023-04-10T05:20:53;101814.41;;;8.46;62.52
39773;BME280;25451;51.960;6.250;2023-04-10T05:23:18;101804.03;;;8.48;62.76
39773;BME280;25451;51.960;6.250;2023-04-10T05:25:44;101804.25;;;8.46;62.28
39773;BME280;25451;51.960;6.250;2023-04-10T05:28:09;101803.81;;;8.49;62.86
39773;BME280;25451;51.960;6.250;2023-04-10T05:30:34;101801.91;;;8.50;62.43
39773;BME280;25451;51.960;6.250;2023-04-10T05:33:00;101807.44;;;8.50;62.75
39773;BME280;25451;51.960;6.250;2023-04-10T05:35:25;101805.94;;;8.54;62.76
39773;BME280;25451;51.960;6.250;2023-04-10T05:37:50;101805.75;;;8.55;62.63
39773;BME280;25451;51.960;6.250;2023-04-10T05:40:15;101802.81;;;8.57;62.83
39773;BME280;25451;51.960;6.250;2023-04-10T05:42:41;101806.19;;;8.59;62.69
39773;BME280;25451;51.960;6.250;2023-04-10T05:45:07;101803.22;;;8.60;62.38
39773;BME280;25451;51.960;6.250;2023-04-10T05:47:32;101791.38;;;8.60;62.16
39773;BME280;25451;51.960;6.250;2023-04-10T05:49:57;101802.59;;;8.65;62.58
39773;BME280;25451;51.960;6.250;2023-04-10T05:52:23;101799.41;;;8.68;62.23
39773;BME280;25451;51.960;6.250;2023-04-10T05:54:48;101802.81;;;8.70;62.52
39773;BME280;25451;51.960;6.250;2023-04-10T05:57:14;101802.41;;;8.73;62.30
39773;BME280;25451;51.960;6.250;2023-04-10T05:59:39;101796.47;;;8.76;62.57
39773;BME280;25451;51.960;6.250;2023-04-10T06:02:05;101804.31;;;8.79;62.33
39773;BME280;25451;51.960;6.250;2023-04-10T06:04:30;101799.03;;;8.84;62.30
39773;BME280;25451;51.960;6.250;2023-04-10T06:06:56;101789.94;;;8.83;62.38
39773;BME280;25451;51.960;6.250;2023-04-10T06:09:22;101795.66;;;8.88;62.44
39773;BME280;25451;51.960;6.250;2023-04-10T06:11:47;101789.75;;;8.91;62.24
39773;BME280;25451;51.960;6.250;2023-04-10T06:14:12;101795.22;;;8.98;62.07
39773;BME280;25451;51.960;6.250;2023-04-10T06:16:38;101793.09;;;9.00;62.04
39773;BME280;25451;51.960;6.250;2023-04-10T06:19:03;101792.47;;;9.04;62.40
39773;BME280;25451;51.960;6.250;2023-04-10T06:21:29;101786.34;;;9.09;62.02
39773;BME280;25451;51.960;6.250;2023-04-10T06:23:54;101782.09;;;9.13;62.36
39773;BME280;25451;51.960;6.250;2023-04-10T06:26:20;101786.78;;;9.19;62.01
39773;BME280;25451;51.960;6.250;2023-04-10T06:28:45;101784.25;;;9.24;61.97
39773;BME280;25451;51.960;6.250;2023-04-10T06:31:11;101778.50;;;9.26;62.31
39773;BME280;25451;51.960;6.250;2023-04-10T06:33:36;101778.28;;;9.34;61.63
39773;BME280;25451;51.960;6.250;2023-04-10T06:36:02;101769.38;;;9.38;62.10
39773;BME280;25451;51.960;6.250;2023-04-10T06:38:28;101765.97;;;9.43;61.99
39773;BME280;25451;51.960;6.250;2023-04-10T06:40:53;101766.41;;;9.46;62.26
39773;BME280;25451;51.960;6.250;2023-04-10T06:43:19;101761.09;;;9.51;61.88
39773;BME280;25451;51.960;6.250;2023-04-10T06:45:44;101766.38;;;9.59;62.23
39773;BME280;25451;51.960;6.250;2023-04-10T06:48:10;101757.47;;;9.64;61.72
39773;BME280;25451;51.960;6.250;2023-04-10T06:50:35;101758.50;;;9.69;61.73
39773;BME280;25451;51.960;6.250;2023-04-10T06:53:01;101746.19;;;9.72;62.02
39773;BME280;25451;51.960;6.250;2023-04-10T06:55:26;101755.09;;;9.80;61.94
39773;BME280;25451;51.960;6.250;2023-04-10T06:57:51;101753.16;;;9.87;61.78
39773;BME280;25451;51.960;6.250;2023-04-10T07:00:18;101750.59;;;9.92;61.81
39773;BME280;25451;51.960;6.250;2023-04-10T07:02:43;101748.66;;;9.99;61.81
39773;BME280;25451;51.960;6.250;2023-04-10T07:05:08;101739.50;;;10.06;61.73
39773;BME280;25451;51.960;6.250;2023-04-10T07:07:34;101733.53;;;10.15;61.53
39773;BME280;25451;51.960;6.250;2023-04-10T07:09:59;101742.84;;;10.21;61.37
39773;BME280;25451;51.960;6.250;2023-04-10T07:12:24;101732.19;;;10.31;61.43
39773;BME280;25451;51.960;6.250;2023-04-10T07:14:50;101721.09;;;10.37;61.29
39773;BME280;25451;51.960;6.250;2023-04-10T07:17:16;101731.47;;;10.48;61.29
39773;BME280;25451;51.960;6.250;2023-04-10T07:19:41;101730.34;;;10.56;61.30
39773;BME280;25451;51.960;6.250;2023-04-10T07:22:06;101705.66;;;10.61;61.25
39773;BME280;25451;51.960;6.250;2023-04-10T07:24:32;101715.38;;;10.70;61.24
39773;BME280;25451;51.960;6.250;2023-04-10T07:26:57;101705.94;;;10.77;61.15
39773;BME280;25451;51.960;6.250;2023-04-10T07:29:22;101707.16;;;10.88;61.13
39773;BME280;25451;51.960;6.250;2023-04-10T07:31:47;101700.28;;;10.97;61.00
39773;BME280;25451;51.960;6.250;2023-04-10T07:34:13;101690.38;;;11.08;60.92
39773;BME280;25451;51.960;6.250;2023-04-10T07:36:38;101697.94;;;11.19;61.01
39773;BME280;25451;51.960;6.250;2023-04-10T07:39:04;101693.59;;;11.29;60.80
39773;BME280;25451;51.960;6.250;2023-04-10T07:41:29;101681.31;;;11.43;60.63
39773;BME280;25451;51.960;6.250;2023-04-10T07:43:55;101680.09;;;11.57;60.47
39773;BME280;25451;51.960;6.250;2023-04-10T07:46:20;101652.19;;;11.59;60.31
39773;BME280;25451;51.960;6.250;2023-04-10T07:48:45;101661.00;;;11.74;60.20
39773;BME280;25451;51.960;6.250;2023-04-10T07:51:11;101673.34;;;11.90;60.23
39773;BME280;25451;51.960;6.250;2023-04-10T07:53:37;101659.78;;;12.00;60.27
39773;BME280;25451;51.960;6.250;2023-04-10T07:56:03;101657.53;;;12.08;60.03
39773;BME280;25451;51.960;6.250;2023-04-10T07:58:28;101662.75;;;12.16;59.90
39773;BME280;25451;51.960;6.250;2023-04-10T08:00:53;101642.59;;;12.27;59.90
39773;BME280;25451;51.960;6.250;2023-04-10T08:03:19;101642.00;;;12.37;59.92
39773;BME280;25451;51.960;6.250;2023-04-10T08:05:44;101641.19;;;12.48;59.72
39773;BME280;25451;51.960;6.250;2023-04-10T08:08:10;101645.91;;;12.59;59.54
39773;BME280;25451;51.960;6.250;2023-04-10T08:10:36;101638.94;;;12.68;59.69
39773;BME280;25451;51.960;6.250;2023-04-10T08:13:02;101636.44;;;12.78;59.50
39773;BME280;25451;51.960;6.250;2023-04-10T08:15:27;101632.19;;;12.87;59.61
39773;BME280;25451;51.960;6.250;2023-04-10T08:17:53;101630.41;;;12.93;59.24
39773;BME280;25451;51.960;6.250;2023-04-10T08:20:18;101630.66;;;13.03;59.02
39773;BME280;25451;51.960;6.250;2023-04-10T08:22:43;101633.91;;;13.11;59.21
39773;BME280;25451;51.960;6.250;2023-04-10T08:25:09;101629.09;;;13.18;59.02
39773;BME280;25451;51.960;6.250;2023-04-10T08:27:34;101636.19;;;13.26;59.11
39773;BME280;25451;51.960;6.250;2023-04-10T08:29:59;101628.34;;;13.35;59.29
39773;BME280;25451;51.960;6.250;2023-04-10T08:32:26;101621.38;;;13.44;58.94
39773;BME280;25451;51.960;6.250;2023-04-10T08:34:52;101619.88;;;13.53;58.68
39773;BME280;25451;51.960;6.250;2023-04-10T08:37:17;101628.16;;;13.64;59.03
39773;BME280;25451;51.960;6.250;2023-04-10T08:39:43;101618.97;;;13.75;58.56
39773;BME280;25451;51.960;6.250;2023-04-10T08:42:09;101629.53;;;13.90;58.44
39773;BME280;25451;51.960;6.250;2023-04-10T08:44:34;101622.59;;;14.04;58.32
39773;BME280;25451;51.960;6.250;2023-04-10T08:47:01;101626.50;;;14.20;58.12
39773;BME280;25451;51.960;6.250;2023-04-10T08:49:59;101623.78;;;14.36;58.00
39773;BME280;25451;51.960;6.250;2023-04-10T08:52:28;101620.44;;;14.51;57.85
39773;BME280;25451;51.960;6.250;2023-04-10T08:54:56;101615.66;;;14.63;57.61
39773;BME280;25451;51.960;6.250;2023-04-10T08:57:24;101620.03;;;14.75;57.27
39773;BME280;25451;51.960;6.250;2023-04-10T08:59:51;101612.94;;;14.84;57.38
39773;BME280;25451;51.960;6.250;2023-04-10T09:02:17;101613.63;;;14.91;57.37
39773;BME280;25451;51.960;6.250;2023-04-10T09:04:47;101613.19;;;15.00;57.29
39773;BME280;25451;51.960;6.250;2023-04-10T09:07:14;101609.50;;;15.11;57.11
39773;BME280;25451;51.960;6.250;2023-04-10T09:09:39;101599.00;;;15.18;56.87
39773;BME280;25451;51.960;6.250;2023-04-10T09:12:05;101585.78;;;15.25;56.64
39773;BME280;25451;51.960;6.250;2023-04-10T09:14:32;101590.09;;;15.37;56.51
39773;BME280;25451;51.960;6.250;2023-04-10T09:17:18;101590.78;;;15.44;56.29
39773;BME280;25451;51.960;6.250;2023-04-10T09:19:46;101579.47;;;15.51;56.28
39773;BME280;25451;51.960;6.250;2023-04-10T09:22:12;101600.69;;;15.57;56.14
39773;BME280;25451;51.960;6.250;2023-04-10T09:24:39;101588.25;;;15.64;55.93
39773;BME280;25451;51.960;6.250;2023-04-10T09:27:05;101585.56;;;15.69;55.72
39773;BME280;25451;51.960;6.250;2023-04-10T09:29:44;101584.25;;;15.77;55.56
39773;BME280;25451;51.960;6.250;2023-04-10T09:32:12;101586.03;;;15.88;55.53
39773;BME280;25451;51.960;6.250;2023-04-10T09:34:52;101569.47;;;15.98;55.23
39773;BME280;25451;51.960;6.250;2023-04-10T09:37:18;101582.91;;;16.06;55.07
39773;BME280;25451;51.960;6.250;2023-04-10T09:39:45;101580.16;;;16.11;54.83
39773;BME280;25451;51.960;6.250;2023-04-10T09:42:10;101590.25;;;16.17;54.58
39773;BME280;25451;51.960;6.250;2023-04-10T09:44:38;101571.31;;;16.19;54.35
39773;BME280;25451;51.960;6.250;2023-04-10T09:47:16;101565.81;;;16.24;54.32
39773;BME280;25451;51.960;6.250;2023-04-10T09:49:45;101552.72;;;16.25;54.28
39773;BME280;25451;51.960;6.250;2023-04-10T09:52:26;101554.13;;;16.27;54.10
39773;BME280;25451;51.960;6.250;2023-04-10T09:54:53;101546.34;;;16.29;54.00
39773;BME280;25451;51.960;6.250;2023-04-10T09:57:20;101544.72;;;16.33;53.76
39773;BME280;25451;51.960;6.250;2023-04-10T09:59:54;101534.72;;;16.37;53.62
39773;BME280;25451;51.960;6.250;2023-04-10T10:02:23;101532.50;;;16.39;53.67
39773;BME280;25451;51.960;6.250;2023-04-10T10:04:50;101517.78;;;16.44;53.53
39773;BME280;25451;51.960;6.250;2023-04-10T10:07:18;101517.25;;;16.47;53.36
39773;BME280;25451;51.960;6.250;2023-04-10T10:09:44;101518.44;;;16.51;53.30
39773;BME280;25451;51.960;6.250;2023-04-10T10:12:11;101511.47;;;16.53;53.16
39773;BME280;25451;51.960;6.250;2023-04-10T10:14:53;101502.59;;;16.56;53.15
39773;BME280;25451;51.960;6.250;2023-04-10T10:17:23;101506.47;;;16.55;53.13
39773;BME280;25451;51.960;6.250;2023-04-10T10:19:58;101488.34;;;16.53;52.84
39773;BME280;25451;51.960;6.250;2023-04-10T10:22:27;101479.41;;;16.51;52.98
39773;BME280;25451;51.960;6.250;2023-04-10T10:24:53;101490.81;;;16.49;52.90
39773;BME280;25451;51.960;6.250;2023-04-10T10:27:22;101483.53;;;16.48;52.99
39773;BME280;25451;51.960;6.250;2023-04-10T10:29:48;101469.88;;;16.47;53.03
39773;BME280;25451;51.960;6.250;2023-04-10T10:32:16;101466.25;;;16.46;52.78
39773;BME280;25451;51.960;6.250;2023-04-10T10:34:41;101473.75;;;16.46;52.83
39773;BME280;25451;51.960;6.250;2023-04-10T10:37:08;101462.31;;;16.42;52.98
39773;BME280;25451;51.960;6.250;2023-04-10T10:39:44;101463.41;;;16.41;52.81
39773;BME280;25451;51.960;6.250;2023-04-10T10:42:17;101455.06;;;16.41;52.80
39773;BME280;25451;51.960;6.250;2023-04-10T10:44:50;101450.59;;;16.40;52.77
39773;BME280;25451;51.960;6.250;2023-04-10T10:47:19;101441.41;;;16.40;52.69
39773;BME280;25451;51.960;6.250;2023-04-10T10:49:55;101441.69;;;16.38;52.68
39773;BME280;25451;51.960;6.250;2023-04-10T10:58:02;101424.97;;;16.43;52.58
39773;BME280;25451;51.960;6.250;2023-04-10T11:05:48;101406.41;;;16.49;52.52
39773;BME280;25451;51.960;6.250;2023-04-10T11:08:14;101402.19;;;16.51;52.46
39773;BME280;25451;51.960;6.250;2023-04-10T11:11:02;101379.03;;;16.46;52.57
39773;BME280;25451;51.960;6.250;2023-04-10T11:13:30;101389.16;;;16.57;52.55
39773;BME280;25451;51.960;6.250;2023-04-10T11:15:55;101384.97;;;16.59;52.50
39773;BME280;25451;51.960;6.250;2023-04-10T11:21:19;101395.88;;;16.66;52.35
39773;BME280;25451;51.960;6.250;2023-04-10T11:31:46;101378.38;;;16.81;52.39
39773;BME280;25451;51.960;6.250;2023-04-10T11:34:18;101367.25;;;16.81;52.22
39773;BME280;25451;51.960;6.250;2023-04-10T11:36:43;101363.91;;;16.89;52.33
39773;BME280;25451;51.960;6.250;2023-04-10T11:39:11;101356.41;;;16.94;52.15
39773;BME280;25451;51.960;6.250;2023-04-10T11:41:48;101345.81;;;16.96;52.27
39773;BME280;25451;51.960;6.250;2023-04-10T11:44:16;101341.09;;;17.02;52.15
39773;BME280;25451;51.960;6.250;2023-04-10T11:46:45;101338.88;;;17.04;52.14
39773;BME280;25451;51.960;6.250;2023-04-10T11:49:17;101336.09;;;17.09;52.05
39773;BME280;25451;51.960;6.250;2023-04-10T11:51:45;101341.94;;;17.12;51.71
39773;BME280;25451;51.960;6.250;2023-04-10T11:54:15;101331.09;;;17.16;51.80
39773;BME280;25451;51.960;6.250;2023-04-10T11:56:43;101327.50;;;17.20;51.71
39773;BME280;25451;51.960;6.250;2023-04-10T11:59:09;101317.69;;;17.23;51.70
39773;BME280;25451;51.960;6.250;2023-04-10T12:01:40;101310.19;;;17.28;51.65
39773;BME280;25451;51.960;6.250;2023-04-10T12:04:16;101308.81;;;17.36;51.72
39773;BME280;25451;51.960;6.250;2023-04-10T12:06:46;101308.25;;;17.44;51.81
39773;BME280;25451;51.960;6.250;2023-04-10T12:09:16;101313.59;;;17.51;51.53
39773;BME280;25451;51.960;6.250;2023-04-10T12:12:02;101297.09;;;17.59;51.52
39773;BME280;25451;51.960;6.250;2023-04-10T12:14:39;101304.63;;;17.64;51.52
39773;BME280;25451;51.960;6.250;2023-04-10T12:17:10;101305.50;;;17.69;51.47
39773;BME280;25451;51.960;6.250;2023-04-10T12:19:37;101297.69;;;17.71;51.49
39773;BME280;25451;51.960;6.250;2023-04-10T12:22:02;101294.31;;;17.74;51.36
39773;BME280;25451;51.960;6.250;2023-04-10T12:24:49;101299.91;;;17.79;51.25
39773;BME280;25451;51.960;6.250;2023-04-10T12:27:16;101285.09;;;17.79;51.03
39773;BME280;25451;51.960;6.250;2023-04-10T12:29:41;101297.13;;;17.79;51.25
39773;BME280;25451;51.960;6.250;2023-04-10T12:32:08;101280.06;;;17.81;51.21
39773;BME280;25451;51.960;6.250;2023-04-10T12:34:33;101278.13;;;17.81;50.97
39773;BME280;25451;51.960;6.250;2023-04-10T12:36:59;101276.44;;;17.80;51.11
39773;BME280;25451;51.960;6.250;2023-04-10T12:39:24;101272.53;;;17.81;50.90
39773;BME280;25451;51.960;6.250;2023-04-10T12:41:50;101273.91;;;17.84;51.04
39773;BME280;25451;51.960;6.250;2023-04-10T12:44:16;101266.91;;;17.86;50.85
39773;BME280;25451;51.960;6.250;2023-04-10T12:46:43;101261.03;;;17.88;50.96
39773;BME280;25451;51.960;6.250;2023-04-10T12:49:14;101259.09;;;17.88;50.97
39773;BME280;25451;51.960;6.250;2023-04-10T12:51:48;101260.50;;;17.91;50.89
39773;BME280;25451;51.960;6.250;2023-04-10T12:54:33;101256.31;;;17.93;51.15
39773;BME280;25451;51.960;6.250;2023-04-10T12:56:59;101248.75;;;17.94;50.97
39773;BME280;25451;51.960;6.250;2023-04-10T12:59:25;101240.09;;;17.95;51.02
39773;BME280;25451;51.960;6.250;2023-04-10T13:01:52;101228.63;;;17.97;51.04
39773;BME280;25451;51.960;6.250;2023-04-10T13:04:17;101232.53;;;18.01;51.16
39773;BME280;25451;51.960;6.250;2023-04-10T13:06:46;101225.56;;;18.03;50.96
39773;BME280;25451;51.960;6.250;2023-04-10T13:09:12;101221.38;;;18.06;51.02
39773;BME280;25451;51.960;6.250;2023-04-10T13:11:38;101220.22;;;18.07;51.09
39773;BME280;25451;51.960;6.250;2023-04-10T13:14:04;101211.56;;;18.08;50.97
39773;BME280;25451;51.960;6.250;2023-04-10T13:16:29;101201.22;;;18.09;51.25
39773;BME280;25451;51.960;6.250;2023-04-10T13:18:55;101201.22;;;18.09;51.04
39773;BME280;25451;51.960;6.250;2023-04-10T13:21:20;101189.19;;;18.08;51.29
39773;BME280;25451;51.960;6.250;2023-04-10T13:23:50;101189.19;;;18.08;51.33
39773;BME280;25451;51.960;6.250;2023-04-10T13:26:15;101184.75;;;18.07;51.24
39773;BME280;25451;51.960;6.250;2023-04-10T13:28:40;101176.38;;;18.07;51.34